Time,TemperatureF,DewpointF,PressureIn,WindDirection,WindDirectionDegrees,WindSpeedMPH,WindSpeedGustMPH,Humidity,HourlyPrecipIn,Conditions,Clouds,dailyrainin,SoftwareType,DateUTC
2013-04-30 00:01:00,49.0,47.0,-100.00,North,2,1.0,2.0,93,-99.99,,,-99.99,,2013-04-30 07:01:00,
2013-04-30 00:11:00,48.0,46.0,-100.00,NNE,21,1.0,2.0,93,-99.99,,,-99.99,,2013-04-30 07:11:00,
2013-04-30 00:21:00,48.0,46.0,-100.00,NE,36,1.0,3.0,93,-99.99,,,-99.99,,2013-04-30 07:21:00,
2013-04-30 00:31:00,48.0,46.0,-100.00,NE,36,1.0,3.0,93,-99.99,,,-99.99,,2013-04-30 07:31:00,
2013-04-30 00:41:00,46.0,44.0,-100.00,ENE,64,2.0,3.0,93,-99.99,,,-99.99,,2013-04-30 07:41:00,
2013-04-30 00:52:00,45.0,43.0,-100.00,NE,34,4.0,5.0,93,-99.99,,,-99.99,,2013-04-30 07:52:00,
2013-04-30 01:02:00,45.0,43.0,-100.00,NE,46,4.0,5.0,94,-99.99,,,-99.99,,2013-04-30 08:02:00,
2013-04-30 01:11:00,45.0,43.0,-100.00,NE,49,4.0,5.0,94,-99.99,,,-99.99,,2013-04-30 08:11:00,
2013-04-30 01:21:00,44.0,42.0,-100.00,NE,48,3.0,5.0,93,-99.99,,,-99.99,,2013-04-30 08:21:00,
2013-04-30 01:32:00,44.0,42.0,-100.00,ENE,57,3.0,4.0,93,-99.99,,,-99.99,,2013-04-30 08:32:00,
2013-04-30 01:41:00,44.0,42.0,-100.00,ENE,57,2.0,3.0,93,-99.99,,,-99.99,,2013-04-30 08:41:00,
2013-04-30 01:50:00,43.0,40.0,-100.00,NE,39,3.0,4.0,90,-99.99,,,-99.99,,2013-04-30 08:50:00,
2013-04-30 01:52:00,45.0,43.0,-100.00,NNE,31,2.0,3.0,94,-99.99,,,-99.99,,2013-04-30 08:52:00,
2013-04-30 02:01:00,45.0,43.0,-100.00,NNE,25,3.0,5.0,93,-99.99,,,-99.99,,2013-04-30 09:01:00,
2013-04-30 02:11:00,45.0,43.0,-100.00,NNE,25,3.0,5.0,93,-99.99,,,-99.99,,2013-04-30 09:11:00,
2013-04-30 02:21:00,43.0,40.0,-100.00,NE,39,3.0,4.0,90,-99.99,,,-99.99,,2013-04-30 09:21:00,
2013-04-30 02:32:00,43.0,40.0,-100.00,NE,39,3.0,4.0,90,-99.99,,,-99.99,,2013-04-30 09:32:00,
2013-04-30 02:43:00,43.0,40.0,-100.00,NE,39,3.0,4.0,90,-99.99,,,-99.99,,2013-04-30 09:43:00,
2013-04-30 02:50:00,44.0,39.0,-100.00,NNW,345,0.0,2.0,81,-99.99,,,-99.99,,2013-04-30 09:50:00,
2013-04-30 03:03:00,44.0,39.0,-100.00,NE,35,3.0,4.0,82,-99.99,,,-99.99,,2013-04-30 10:03:00,
2013-04-30 03:22:00,44.0,39.0,-100.00,NNW,345,0.0,2.0,81,-99.99,,,-99.99,,2013-04-30 10:22:00,
2013-04-30 03:32:00,44.0,39.0,-100.00,NNW,345,0.0,2.0,81,-99.99,,,-99.99,,2013-04-30 10:32:00,
2013-04-30 03:41:00,44.0,39.0,-100.00,NNW,345,0.0,2.0,81,-99.99,,,-99.99,,2013-04-30 10:41:00,
2013-04-30 03:50:00,44.0,42.0,-100.00,West,268,1.0,3.0,91,-99.99,,,-99.99,,2013-04-30 10:50:00,
2013-04-30 04:01:00,44.0,40.0,-100.00,SE,133,0.0,2.0,87,-99.99,,,-99.99,,2013-04-30 11:01:00,
2013-04-30 04:21:00,44.0,42.0,-100.00,West,268,1.0,3.0,91,-99.99,,,-99.99,,2013-04-30 11:21:00,
2013-04-30 04:31:00,44.0,42.0,-100.00,West,268,1.0,3.0,91,-99.99,,,-99.99,,2013-04-30 11:31:00,
2013-04-30 04:42:00,44.0,42.0,-100.00,West,268,1.0,3.0,91,-99.99,,,-99.99,,2013-04-30 11:42:00,
2013-04-30 06:41:00,39.0,37.0,-100.00,ENE,69,2.0,3.0,94,-99.99,,,-99.99,,2013-04-30 13:41:00,
2013-04-30 07:50:00,48.0,47.0,-100.00,SSW,198,4.0,7.0,95,-99.99,,,-99.99,,2013-04-30 14:50:00,
2013-04-30 08:21:00,48.0,47.0,-100.00,SSW,198,4.0,7.0,95,-99.99,,,-99.99,,2013-04-30 15:21:00,
2013-04-30 08:32:00,48.0,47.0,-100.00,SSW,198,4.0,7.0,95,-99.99,,,-99.99,,2013-04-30 15:32:00,
2013-04-30 08:42:00,48.0,47.0,-100.00,SSW,198,4.0,7.0,95,-99.99,,,-99.99,,2013-04-30 15:42:00,
2013-04-30 09:02:00,52.0,50.0,-100.00,SSW,211,3.0,5.0,93,-99.99,,,-99.99,,2013-04-30 16:02:00,
2013-04-30 09:12:00,53.0,50.0,-100.00,SSW,210,3.0,6.0,91,-99.99,,,-99.99,,2013-04-30 16:12:00,
2013-04-30 09:22:00,53.0,50.0,-100.00,SW,217,5.0,7.0,88,-99.99,,,-99.99,,2013-04-30 16:22:00,
2013-04-30 09:32:00,53.0,50.0,-100.00,SW,217,5.0,7.0,88,-99.99,,,-99.99,,2013-04-30 16:32:00,
2013-04-30 09:42:00,53.0,50.0,-100.00,SW,217,5.0,7.0,88,-99.99,,,-99.99,,2013-04-30 16:42:00,
2013-04-30 09:52:00,56.0,47.0,-100.00,SSW,205,7.0,12.0,73,-99.99,,,-99.99,,2013-04-30 16:52:00,
2013-04-30 10:02:00,57.0,47.0,-100.00,SSW,206,7.0,10.0,69,-99.99,,,-99.99,,2013-04-30 17:02:00,
2013-04-30 10:12:00,57.0,46.0,-100.00,SW,214,6.0,9.0,67,-99.99,,,-99.99,,2013-04-30 17:12:00,
2013-04-30 10:22:00,58.0,46.0,-100.00,SSW,212,5.0,8.0,64,-99.99,,,-99.99,,2013-04-30 17:22:00,
2013-04-30 10:32:00,58.0,46.0,-100.00,SSW,212,5.0,8.0,64,-99.99,,,-99.99,,2013-04-30 17:32:00,
2013-04-30 10:42:00,58.0,46.0,-100.00,SSW,212,5.0,8.0,64,-99.99,,,-99.99,,2013-04-30 17:42:00,
2013-04-30 10:52:00,61.0,45.0,-100.00,SW,223,6.0,10.0,55,-99.99,,,-99.99,,2013-04-30 17:52:00,
2013-04-30 11:01:00,63.0,45.0,-100.00,SW,218,6.0,10.0,52,-99.99,,,-99.99,,2013-04-30 18:01:00,
2013-04-30 11:11:00,62.0,44.0,-100.00,SW,221,7.0,12.0,51,-99.99,,,-99.99,,2013-04-30 18:11:00,
2013-04-30 11:22:00,63.0,44.0,-100.00,SSW,212,7.0,12.0,50,-99.99,,,-99.99,,2013-04-30 18:22:00,
2013-04-30 11:32:00,64.0,44.0,-100.00,SSW,213,8.0,13.0,49,-99.99,,,-99.99,,2013-04-30 18:32:00,
2013-04-30 11:41:00,64.0,44.0,-100.00,SW,224,7.0,13.0,49,-99.99,,,-99.99,,2013-04-30 18:41:00,
2013-04-30 11:51:00,65.0,45.0,-100.00,SW,224,7.0,13.0,49,-99.99,,,-99.99,,2013-04-30 18:51:00,
2013-04-30 12:01:00,65.0,46.0,-100.00,SW,225,9.0,15.0,50,-99.99,,,-99.99,,2013-04-30 19:01:00,
2013-04-30 12:11:00,65.0,46.0,-100.00,SSW,210,9.0,12.0,50,-99.99,,,-99.99,,2013-04-30 19:11:00,
2013-04-30 12:21:00,65.0,46.0,-100.00,SW,217,9.0,14.0,51,-99.99,,,-99.99,,2013-04-30 19:21:00,
2013-04-30 12:31:00,65.0,46.0,-100.00,SW,222,9.0,15.0,51,-99.99,,,-99.99,,2013-04-30 19:31:00,
2013-04-30 12:41:00,65.0,46.0,-100.00,SW,215,8.0,16.0,51,-99.99,,,-99.99,,2013-04-30 19:41:00,
2013-04-30 12:52:00,66.0,47.0,-100.00,SSW,208,7.0,13.0,50,-99.99,,,-99.99,,2013-04-30 19:52:00,
2013-04-30 13:01:00,66.0,47.0,-100.00,SSW,208,7.0,13.0,50,-99.99,,,-99.99,,2013-04-30 20:01:00,
2013-04-30 13:11:00,67.0,46.0,-100.00,SW,224,6.0,11.0,47,-99.99,,,-99.99,,2013-04-30 20:11:00,
2013-04-30 13:21:00,67.0,46.0,-100.00,SSW,213,6.0,14.0,47,-99.99,,,-99.99,,2013-04-30 20:21:00,
2013-04-30 13:32:00,68.0,46.0,-100.00,WSW,238,6.0,14.0,45,-99.99,,,-99.99,,2013-04-30 20:32:00,
2013-04-30 13:42:00,68.0,46.0,-100.00,SW,227,7.0,14.0,45,-99.99,,,-99.99,,2013-04-30 20:42:00,
2013-04-30 13:52:00,68.0,46.0,-100.00,SW,225,7.0,13.0,45,-99.99,,,-99.99,,2013-04-30 20:52:00,
2013-04-30 14:01:00,68.0,46.0,-100.00,SW,225,7.0,13.0,45,-99.99,,,-99.99,,2013-04-30 21:01:00,
2013-04-30 14:11:00,69.0,46.0,-100.00,SW,221,9.0,14.0,44,-99.99,,,-99.99,,2013-04-30 21:11:00,
2013-04-30 14:22:00,69.0,47.0,-100.00,SW,223,11.0,17.0,45,-99.99,,,-99.99,,2013-04-30 21:22:00,
2013-04-30 14:32:00,69.0,47.0,-100.00,WSW,243,9.0,18.0,45,-99.99,,,-99.99,,2013-04-30 21:32:00,
2013-04-30 14:42:00,69.0,47.0,-100.00,WSW,243,9.0,18.0,45,-99.99,,,-99.99,,2013-04-30 21:42:00,
2013-04-30 14:52:00,68.0,48.0,-100.00,SW,228,12.0,18.0,48,-99.99,,,-99.99,,2013-04-30 21:52:00,
2013-04-30 15:02:00,68.0,48.0,-100.00,SW,220,11.0,17.0,49,-99.99,,,-99.99,,2013-04-30 22:02:00,
2013-04-30 15:12:00,67.0,48.0,-100.00,SW,221,11.0,17.0,51,-99.99,,,-99.99,,2013-04-30 22:12:00,
2013-04-30 15:22:00,67.0,49.0,-100.00,SW,218,11.0,16.0,52,-99.99,,,-99.99,,2013-04-30 22:22:00,
2013-04-30 15:32:00,67.0,48.0,-100.00,SW,225,11.0,15.0,51,-99.99,,,-99.99,,2013-04-30 22:32:00,
2013-04-30 15:41:00,68.0,49.0,-100.00,SW,214,10.0,15.0,51,-99.99,,,-99.99,,2013-04-30 22:41:00,
2013-04-30 15:52:00,67.0,49.0,-100.00,SW,218,12.0,16.0,52,-99.99,,,-99.99,,2013-04-30 22:52:00,
2013-04-30 16:02:00,66.0,49.0,-100.00,SSW,213,12.0,17.0,54,-99.99,,,-99.99,,2013-04-30 23:02:00,
2013-04-30 16:11:00,66.0,49.0,-100.00,SW,219,12.0,18.0,54,-99.99,,,-99.99,,2013-04-30 23:11:00,
2013-04-30 16:21:00,67.0,49.0,-100.00,SW,218,11.0,17.0,53,-99.99,,,-99.99,,2013-04-30 23:21:00,
2013-04-30 16:32:00,67.0,49.0,-100.00,SW,223,11.0,17.0,53,-99.99,,,-99.99,,2013-04-30 23:32:00,
2013-04-30 16:42:00,66.0,49.0,-100.00,SW,219,12.0,17.0,55,-99.99,,,-99.99,,2013-04-30 23:42:00,
2013-04-30 16:52:00,65.0,49.0,-100.00,SW,220,12.0,17.0,56,-99.99,,,-99.99,,2013-04-30 23:52:00,
2013-04-30 17:01:00,66.0,50.0,-100.00,SW,218,10.0,16.0,56,-99.99,,,-99.99,,2013-05-01 00:01:00,
2013-04-30 17:11:00,66.0,50.0,-100.00,SW,218,11.0,15.0,56,-99.99,,,-99.99,,2013-05-01 00:11:00,
2013-04-30 17:21:00,65.0,49.0,-100.00,SW,220,10.0,16.0,57,-99.99,,,-99.99,,2013-05-01 00:21:00,
2013-04-30 17:31:00,65.0,50.0,-100.00,SW,214,8.0,13.0,58,-99.99,,,-99.99,,2013-05-01 00:31:00,
2013-04-30 17:42:00,65.0,50.0,-100.00,SW,214,8.0,13.0,58,-99.99,,,-99.99,,2013-05-01 00:42:00,
2013-04-30 17:51:00,65.0,50.0,-100.00,SSW,207,8.0,12.0,58,-99.99,,,-99.99,,2013-05-01 00:51:00,
2013-04-30 18:01:00,65.0,50.0,-100.00,SSW,207,8.0,12.0,58,-99.99,,,-99.99,,2013-05-01 01:01:00,
2013-04-30 18:11:00,64.0,49.0,-100.00,SSW,211,9.0,12.0,59,-99.99,,,-99.99,,2013-05-01 01:11:00,
2013-04-30 18:21:00,64.0,50.0,-100.00,SSW,212,8.0,13.0,60,-99.99,,,-99.99,,2013-05-01 01:21:00,
2013-04-30 18:31:00,64.0,50.0,-100.00,SW,216,10.0,14.0,61,-99.99,,,-99.99,,2013-05-01 01:31:00,
2013-04-30 18:41:00,62.0,50.0,-100.00,SSW,209,10.0,15.0,64,-99.99,,,-99.99,,2013-05-01 01:41:00,
2013-04-30 18:52:00,61.0,50.0,-100.00,SSW,209,10.0,14.0,67,-99.99,,,-99.99,,2013-05-01 01:52:00,
2013-04-30 19:01:00,60.0,50.0,-100.00,SSW,209,10.0,15.0,69,-99.99,,,-99.99,,2013-05-01 02:01:00,
2013-04-30 19:11:00,59.0,50.0,-100.00,SSW,211,9.0,14.0,71,-99.99,,,-99.99,,2013-05-01 02:11:00,
2013-04-30 19:21:00,58.0,50.0,-100.00,SSW,211,9.0,13.0,74,-99.99,,,-99.99,,2013-05-01 02:21:00,
2013-04-30 19:32:00,57.0,50.0,-100.00,SSW,209,8.0,13.0,77,-99.99,,,-99.99,,2013-05-01 02:32:00,
2013-04-30 19:42:00,56.0,50.0,-100.00,SSW,207,7.0,13.0,79,-99.99,,,-99.99,,2013-05-01 02:42:00,
2013-04-30 19:51:00,56.0,50.0,-100.00,SSW,213,6.0,10.0,80,-99.99,,,-99.99,,2013-05-01 02:51:00,
2013-04-30 20:01:00,55.0,49.0,-100.00,SSW,205,5.0,9.0,81,-99.99,,,-99.99,,2013-05-01 03:01:00,
2013-04-30 20:11:00,55.0,50.0,-100.00,SSW,210,4.0,8.0,83,-99.99,,,-99.99,,2013-05-01 03:11:00,
2013-04-30 20:21:00,54.0,49.0,-100.00,SSW,211,4.0,7.0,84,-99.99,,,-99.99,,2013-05-01 03:21:00,
2013-04-30 20:32:00,54.0,49.0,-100.00,SSW,211,4.0,7.0,84,-99.99,,,-99.99,,2013-05-01 03:32:00,
2013-04-30 20:42:00,53.0,49.0,-100.00,SW,218,4.0,8.0,87,-99.99,,,-99.99,,2013-05-01 03:42:00,
2013-04-30 20:52:00,53.0,50.0,-100.00,SW,219,4.0,6.0,88,-99.99,,,-99.99,,2013-05-01 03:52:00,
2013-04-30 21:03:00,53.0,50.0,-100.00,WSW,240,3.0,5.0,89,-99.99,,,-99.99,,2013-05-01 04:03:00,
2013-04-30 21:12:00,53.0,50.0,-100.00,WSW,252,3.0,4.0,89,-99.99,,,-99.99,,2013-05-01 04:12:00,
2013-04-30 21:22:00,53.0,50.0,-100.00,SW,223,2.0,4.0,88,-99.99,,,-99.99,,2013-05-01 04:22:00,
2013-04-30 21:32:00,54.0,51.0,-100.00,South,181,2.0,4.0,88,-99.99,,,-99.99,,2013-05-01 04:32:00,
2013-04-30 21:42:00,54.0,50.0,-100.00,North,357,0.0,2.0,87,-99.99,,,-99.99,,2013-05-01 04:42:00,
2013-04-30 21:52:00,54.0,50.0,-100.00,North,2,2.0,4.0,86,-99.99,,,-99.99,,2013-05-01 04:52:00,
2013-04-30 22:02:00,54.0,50.0,-100.00,West,279,3.0,4.0,86,-99.99,,,-99.99,,2013-05-01 05:02:00,
2013-04-30 22:11:00,54.0,50.0,-100.00,SSW,213,3.0,5.0,87,-99.99,,,-99.99,,2013-05-01 05:11:00,
2013-04-30 22:21:00,53.0,50.0,-100.00,SSW,207,5.0,6.0,89,-99.99,,,-99.99,,2013-05-01 05:21:00,
2013-04-30 22:32:00,53.0,50.0,-100.00,SW,214,5.0,7.0,90,-99.99,,,-99.99,,2013-05-01 05:32:00,
2013-04-30 22:41:00,53.0,50.0,-100.00,SSW,213,4.0,5.0,90,-99.99,,,-99.99,,2013-05-01 05:41:00,
2013-04-30 22:52:00,53.0,50.0,-100.00,SW,219,4.0,6.0,91,-99.99,,,-99.99,,2013-05-01 05:52:00,
2013-04-30 23:02:00,52.0,49.0,-100.00,SW,216,4.0,6.0,91,-99.99,,,-99.99,,2013-05-01 06:02:00,
2013-04-30 23:11:00,52.0,50.0,-100.00,SW,219,3.0,5.0,92,-99.99,,,-99.99,,2013-05-01 06:11:00,
2013-04-30 23:22:00,52.0,50.0,-100.00,WSW,237,3.0,5.0,92,-99.99,,,-99.99,,2013-05-01 06:22:00,
2013-04-30 23:32:00,53.0,51.0,-100.00,SW,232,3.0,6.0,92,-99.99,,,-99.99,,2013-05-01 06:32:00,
2013-04-30 23:42:00,53.0,50.0,-100.00,WSW,246,4.0,5.0,91,-99.99,,,-99.99,,2013-05-01 06:42:00,
2013-04-30 23:51:00,53.0,50.0,-100.00,SW,234,3.0,5.0,90,-99.99,,,-99.99,,2013-05-01 06:51:00,